Spofford, New Hampshire
Current Conditions -  °F | °C
As of 2:55 AM on Friday 19 Dec 2014 (Local Time) from KEEN Reporting Station
Overcast Overcast  
Wind Chill: 27°   Ceiling: 2500
Heat Index: 32°   Visibility: 10mi
Dew Point: 25°   Wind: 5mph
Humidity: 75%   Direction: 320°NW
Pressure: 29.89"   Gusts: NA
Location:  42.91°N, 72.42°W
Report Text: KEEN 190755Z AUTO 32004KT 10SM BKN025 BKN030 OVC045 00/M04 A2989 RMK AO1
Loading
Personal Weather Stations






























Interactive Weather Map New forecast layout! Learn more

10-Day Weather Forecast

Advertisements
Track Severe Weather on mobile